sensor_id;sensor_type;location;lat;lon;timestamp;pressure;altitude;pressure_sealevel;temperature;humidity
16544;BME280;8384;47.996;7.786;2023-07-28T00:01:31;98088.31;;;17.58;88.87
16544;BME280;8384;47.996;7.786;2023-07-28T00:03:57;98070.25;;;17.34;89.79
16544;BME280;8384;47.996;7.786;2023-07-28T00:06:23;98091.53;;;17.43;91.25
16544;BME280;8384;47.996;7.786;2023-07-28T00:08:49;98089.94;;;17.86;89.85
16544;BME280;8384;47.996;7.786;2023-07-28T00:11:15;98091.06;;;17.76;89.39
16544;BME280;8384;47.996;7.786;2023-07-28T00:13:41;98094.97;;;17.57;90.44
16544;BME280;8384;47.996;7.786;2023-07-28T00:16:08;98094.00;;;17.53;90.91
16544;BME280;8384;47.996;7.786;2023-07-28T00:18:34;98079.38;;;17.79;89.93
16544;BME280;8384;47.996;7.786;2023-07-28T00:20:59;98109.09;;;17.64;90.81
16544;BME280;8384;47.996;7.786;2023-07-28T00:23:25;98101.81;;;17.86;89.46
16544;BME280;8384;47.996;7.786;2023-07-28T00:25:51;98114.31;;;17.57;91.58
16544;BME280;8384;47.996;7.786;2023-07-28T00:28:16;98101.78;;;17.68;91.07
16544;BME280;8384;47.996;7.786;2023-07-28T00:30:41;98106.53;;;17.59;91.38
16544;BME280;8384;47.996;7.786;2023-07-28T00:33:06;98109.59;;;17.58;92.03
16544;BME280;8384;47.996;7.786;2023-07-28T00:35:32;98106.19;;;17.52;90.07
16544;BME280;8384;47.996;7.786;2023-07-28T00:37:57;98107.97;;;17.48;92.52
16544;BME280;8384;47.996;7.786;2023-07-28T00:40:23;98112.63;;;17.30;94.21
16544;BME280;8384;47.996;7.786;2023-07-28T00:42:48;98114.09;;;17.27;93.14
16544;BME280;8384;47.996;7.786;2023-07-28T00:45:14;98110.19;;;17.19;94.69
16544;BME280;8384;47.996;7.786;2023-07-28T00:47:40;98114.28;;;17.39;93.23
16544;BME280;8384;47.996;7.786;2023-07-28T00:50:06;98110.38;;;17.49;92.81
16544;BME280;8384;47.996;7.786;2023-07-28T00:52:33;98102.28;;;17.44;92.32
16544;BME280;8384;47.996;7.786;2023-07-28T00:54:58;98110.53;;;17.35;93.59
16544;BME280;8384;47.996;7.786;2023-07-28T00:57:24;98125.66;;;17.29;95.89
16544;BME280;8384;47.996;7.786;2023-07-28T00:59:49;98130.53;;;17.32;95.59
16544;BME280;8384;47.996;7.786;2023-07-28T01:02:14;98124.66;;;17.34;95.09
16544;BME280;8384;47.996;7.786;2023-07-28T01:04:40;98130.41;;;17.46;94.90
16544;BME280;8384;47.996;7.786;2023-07-28T01:10:05;98135.81;;;17.11;96.49
16544;BME280;8384;47.996;7.786;2023-07-28T01:12:32;98129.81;;;17.18;96.54
16544;BME280;8384;47.996;7.786;2023-07-28T01:14:57;98140.88;;;17.18;95.21
16544;BME280;8384;47.996;7.786;2023-07-28T01:17:22;98153.63;;;16.96;96.85
16544;BME280;8384;47.996;7.786;2023-07-28T01:19:49;98144.25;;;17.06;95.82
16544;BME280;8384;47.996;7.786;2023-07-28T01:28:02;98135.34;;;17.18;95.61
16544;BME280;8384;47.996;7.786;2023-07-28T01:30:29;98148.38;;;17.26;95.92
16544;BME280;8384;47.996;7.786;2023-07-28T01:32:55;98132.59;;;17.18;95.89
16544;BME280;8384;47.996;7.786;2023-07-28T01:35:21;98150.16;;;17.31;94.99
16544;BME280;8384;47.996;7.786;2023-07-28T01:37:46;98155.88;;;17.34;95.21
16544;BME280;8384;47.996;7.786;2023-07-28T01:40:18;98159.78;;;17.33;95.08
16544;BME280;8384;47.996;7.786;2023-07-28T01:42:44;98137.25;;;17.08;97.54
16544;BME280;8384;47.996;7.786;2023-07-28T01:45:09;98154.38;;;17.19;96.07
16544;BME280;8384;47.996;7.786;2023-07-28T01:47:35;98168.69;;;17.30;95.81
16544;BME280;8384;47.996;7.786;2023-07-28T01:50:00;98161.06;;;17.36;94.80
16544;BME280;8384;47.996;7.786;2023-07-28T01:52:25;98156.19;;;17.42;93.90
16544;BME280;8384;47.996;7.786;2023-07-28T01:54:50;98143.72;;;17.44;92.90
16544;BME280;8384;47.996;7.786;2023-07-28T01:57:17;98146.66;;;17.57;91.61
16544;BME280;8384;47.996;7.786;2023-07-28T01:59:42;98160.31;;;17.62;91.50
16544;BME280;8384;47.996;7.786;2023-07-28T02:02:07;98153.28;;;17.47;92.31
16544;BME280;8384;47.996;7.786;2023-07-28T02:04:33;98169.22;;;17.50;92.57
16544;BME280;8384;47.996;7.786;2023-07-28T02:06:58;98168.59;;;17.62;92.58
16544;BME280;8384;47.996;7.786;2023-07-28T02:09:23;98143.38;;;17.37;92.37
16544;BME280;8384;47.996;7.786;2023-07-28T02:11:48;98162.41;;;17.47;92.96
16544;BME280;8384;47.996;7.786;2023-07-28T02:14:14;98168.81;;;17.74;91.80
16544;BME280;8384;47.996;7.786;2023-07-28T02:16:39;98178.88;;;17.79;91.74
16544;BME280;8384;47.996;7.786;2023-07-28T02:19:04;98173.84;;;17.81;91.56
16544;BME280;8384;47.996;7.786;2023-07-28T02:21:30;98177.25;;;17.78;92.50
16544;BME280;8384;47.996;7.786;2023-07-28T02:23:55;98179.69;;;17.88;91.55
16544;BME280;8384;47.996;7.786;2023-07-28T02:26:20;98170.25;;;17.89;91.53
16544;BME280;8384;47.996;7.786;2023-07-28T02:28:46;98170.59;;;17.96;91.20
16544;BME280;8384;47.996;7.786;2023-07-28T02:31:11;98169.59;;;17.83;92.50
16544;BME280;8384;47.996;7.786;2023-07-28T02:33:36;98174.34;;;17.83;92.09
16544;BME280;8384;47.996;7.786;2023-07-28T02:36:04;98176.00;;;18.02;91.29
16544;BME280;8384;47.996;7.786;2023-07-28T02:38:29;98168.97;;;17.95;91.42
16544;BME280;8384;47.996;7.786;2023-07-28T02:40:54;98192.56;;;17.84;92.63
16544;BME280;8384;47.996;7.786;2023-07-28T02:43:19;98182.44;;;17.88;92.97
16544;BME280;8384;47.996;7.786;2023-07-28T02:45:54;98163.09;;;17.88;92.06
16544;BME280;8384;47.996;7.786;2023-07-28T02:48:20;98163.00;;;18.11;91.52
16544;BME280;8384;47.996;7.786;2023-07-28T02:50:47;98175.13;;;17.92;92.30
16544;BME280;8384;47.996;7.786;2023-07-28T02:53:13;98171.38;;;17.88;93.31
16544;BME280;8384;47.996;7.786;2023-07-28T02:55:45;98171.44;;;18.06;92.36
16544;BME280;8384;47.996;7.786;2023-07-28T02:58:11;98183.16;;;18.03;92.83
16544;BME280;8384;47.996;7.786;2023-07-28T03:00:37;98184.91;;;17.72;95.12
16544;BME280;8384;47.996;7.786;2023-07-28T03:03:03;98183.09;;;17.76;95.03
16544;BME280;8384;47.996;7.786;2023-07-28T03:05:31;98184.25;;;17.84;93.87
16544;BME280;8384;47.996;7.786;2023-07-28T03:07:56;98167.34;;;17.86;92.88
16544;BME280;8384;47.996;7.786;2023-07-28T03:10:21;98177.09;;;17.92;92.50
16544;BME280;8384;47.996;7.786;2023-07-28T03:12:47;98179.09;;;18.00;91.28
16544;BME280;8384;47.996;7.786;2023-07-28T03:15:12;98169.34;;;18.03;90.57
16544;BME280;8384;47.996;7.786;2023-07-28T03:17:37;98178.44;;;18.03;89.98
16544;BME280;8384;47.996;7.786;2023-07-28T03:20:03;98177.31;;;18.22;88.61
16544;BME280;8384;47.996;7.786;2023-07-28T03:22:28;98181.72;;;18.14;88.17
16544;BME280;8384;47.996;7.786;2023-07-28T03:24:54;98192.56;;;18.28;87.13
16544;BME280;8384;47.996;7.786;2023-07-28T03:27:19;98166.88;;;18.19;86.58
16544;BME280;8384;47.996;7.786;2023-07-28T03:29:45;98190.97;;;18.44;85.84
16544;BME280;8384;47.996;7.786;2023-07-28T03:32:10;98184.91;;;18.60;84.56
16544;BME280;8384;47.996;7.786;2023-07-28T03:34:35;98180.19;;;18.61;84.17
16544;BME280;8384;47.996;7.786;2023-07-28T03:37:00;98159.53;;;18.49;84.38
16544;BME280;8384;47.996;7.786;2023-07-28T03:39:26;98175.97;;;18.54;84.61
16544;BME280;8384;47.996;7.786;2023-07-28T03:41:51;98178.56;;;18.59;84.95
16544;BME280;8384;47.996;7.786;2023-07-28T03:44:16;98175.78;;;18.59;84.24
16544;BME280;8384;47.996;7.786;2023-07-28T03:46:41;98155.78;;;18.45;84.77
16544;BME280;8384;47.996;7.786;2023-07-28T03:49:07;98179.53;;;18.55;84.93
16544;BME280;8384;47.996;7.786;2023-07-28T03:51:32;98175.78;;;18.59;83.60
16544;BME280;8384;47.996;7.786;2023-07-28T03:53:57;98167.13;;;18.70;82.90
16544;BME280;8384;47.996;7.786;2023-07-28T03:56:23;98162.88;;;18.81;82.20
16544;BME280;8384;47.996;7.786;2023-07-28T03:58:48;98174.44;;;18.83;82.16
16544;BME280;8384;47.996;7.786;2023-07-28T04:01:13;98171.19;;;18.81;81.59
16544;BME280;8384;47.996;7.786;2023-07-28T04:03:38;98171.19;;;18.81;81.80
16544;BME280;8384;47.996;7.786;2023-07-28T04:06:11;98177.81;;;18.89;80.35
16544;BME280;8384;47.996;7.786;2023-07-28T04:08:37;98179.63;;;18.85;80.71
16544;BME280;8384;47.996;7.786;2023-07-28T04:11:02;98171.78;;;18.96;80.09
16544;BME280;8384;47.996;7.786;2023-07-28T04:13:27;98142.97;;;18.88;79.74
16544;BME280;8384;47.996;7.786;2023-07-28T04:15:52;98175.06;;;18.98;79.73
16544;BME280;8384;47.996;7.786;2023-07-28T04:18:18;98164.94;;;19.02;78.64
16544;BME280;8384;47.996;7.786;2023-07-28T04:20:43;98178.56;;;19.16;78.34
16544;BME280;8384;47.996;7.786;2023-07-28T04:23:08;98174.28;;;19.27;77.35
16544;BME280;8384;47.996;7.786;2023-07-28T04:25:33;98168.94;;;19.22;77.02
16544;BME280;8384;47.996;7.786;2023-07-28T04:27:59;98184.22;;;19.28;76.79
16544;BME280;8384;47.996;7.786;2023-07-28T04:30:24;98193.81;;;19.31;76.34
16544;BME280;8384;47.996;7.786;2023-07-28T04:32:49;98185.34;;;19.36;75.46
16544;BME280;8384;47.996;7.786;2023-07-28T04:35:14;98188.59;;;19.38;76.31
16544;BME280;8384;47.996;7.786;2023-07-28T04:37:40;98189.06;;;19.40;75.64
16544;BME280;8384;47.996;7.786;2023-07-28T04:40:06;98184.00;;;19.42;75.69
16544;BME280;8384;47.996;7.786;2023-07-28T04:42:33;98180.09;;;19.43;75.42
16544;BME280;8384;47.996;7.786;2023-07-28T04:44:58;98176.59;;;19.55;74.47
16544;BME280;8384;47.996;7.786;2023-07-28T04:47:23;98185.03;;;19.59;74.21
16544;BME280;8384;47.996;7.786;2023-07-28T04:49:49;98184.50;;;19.66;74.04
16544;BME280;8384;47.996;7.786;2023-07-28T04:52:14;98188.97;;;19.58;74.83
16544;BME280;8384;47.996;7.786;2023-07-28T04:54:39;98180.41;;;19.72;74.33
16544;BME280;8384;47.996;7.786;2023-07-28T04:57:05;98169.97;;;19.69;73.31
16544;BME280;8384;47.996;7.786;2023-07-28T04:59:30;98181.66;;;19.74;72.92
16544;BME280;8384;47.996;7.786;2023-07-28T05:01:56;98197.13;;;19.84;72.95
16544;BME280;8384;47.996;7.786;2023-07-28T05:04:21;98201.97;;;19.87;73.59
16544;BME280;8384;47.996;7.786;2023-07-28T05:06:47;98207.03;;;19.94;72.88
16544;BME280;8384;47.996;7.786;2023-07-28T05:09:12;98205.66;;;20.00;72.93
16544;BME280;8384;47.996;7.786;2023-07-28T05:11:37;98202.69;;;20.05;72.33
16544;BME280;8384;47.996;7.786;2023-07-28T05:14:02;98203.19;;;20.07;71.96
16544;BME280;8384;47.996;7.786;2023-07-28T05:16:31;98217.13;;;20.20;71.54
16544;BME280;8384;47.996;7.786;2023-07-28T05:18:56;98212.25;;;20.17;71.10
16544;BME280;8384;47.996;7.786;2023-07-28T05:21:21;98216.50;;;20.14;71.68
16544;BME280;8384;47.996;7.786;2023-07-28T05:23:47;98208.47;;;20.21;71.10
16544;BME280;8384;47.996;7.786;2023-07-28T05:26:12;98206.50;;;20.22;70.87
16544;BME280;8384;47.996;7.786;2023-07-28T05:28:37;98204.06;;;20.20;70.52
16544;BME280;8384;47.996;7.786;2023-07-28T05:31:04;98176.88;;;20.14;69.98
16544;BME280;8384;47.996;7.786;2023-07-28T05:33:30;98204.13;;;20.33;69.81
16544;BME280;8384;47.996;7.786;2023-07-28T05:36:02;98199.81;;;20.23;70.10
16544;BME280;8384;47.996;7.786;2023-07-28T05:38:28;98205.34;;;20.23;70.29
16544;BME280;8384;47.996;7.786;2023-07-28T05:40:57;98195.41;;;20.22;70.39
16544;BME280;8384;47.996;7.786;2023-07-28T05:43:23;98224.28;;;20.42;69.68
16544;BME280;8384;47.996;7.786;2023-07-28T05:45:48;98200.97;;;20.22;69.37
16544;BME280;8384;47.996;7.786;2023-07-28T05:48:13;98209.13;;;20.18;70.54
16544;BME280;8384;47.996;7.786;2023-07-28T05:50:38;98234.78;;;20.36;69.78
16544;BME280;8384;47.996;7.786;2023-07-28T05:53:04;98242.03;;;20.29;70.12
16544;BME280;8384;47.996;7.786;2023-07-28T05:55:29;98230.66;;;20.21;69.86
16544;BME280;8384;47.996;7.786;2023-07-28T05:57:54;98232.28;;;20.22;70.37
16544;BME280;8384;47.996;7.786;2023-07-28T06:00:20;98248.94;;;20.22;72.34
16544;BME280;8384;47.996;7.786;2023-07-28T06:02:45;98248.72;;;20.06;74.18
16544;BME280;8384;47.996;7.786;2023-07-28T06:05:10;98236.94;;;20.10;74.32
16544;BME280;8384;47.996;7.786;2023-07-28T06:07:36;98247.25;;;20.09;74.55
16544;BME280;8384;47.996;7.786;2023-07-28T06:10:01;98220.47;;;19.83;74.95
16544;BME280;8384;47.996;7.786;2023-07-28T06:12:27;98253.00;;;20.04;73.59
16544;BME280;8384;47.996;7.786;2023-07-28T06:14:52;98252.03;;;20.00;74.58
16544;BME280;8384;47.996;7.786;2023-07-28T06:17:18;98246.59;;;20.03;74.20
16544;BME280;8384;47.996;7.786;2023-07-28T06:19:43;98242.22;;;20.02;74.96
16544;BME280;8384;47.996;7.786;2023-07-28T06:22:08;98237.38;;;19.99;74.98
16544;BME280;8384;47.996;7.786;2023-07-28T06:24:33;98253.78;;;20.04;75.67
16544;BME280;8384;47.996;7.786;2023-07-28T06:26:59;98248.78;;;19.98;75.66
16544;BME280;8384;47.996;7.786;2023-07-28T06:29:24;98249.59;;;19.98;75.60
16544;BME280;8384;47.996;7.786;2023-07-28T06:31:49;98249.31;;;19.91;75.41
16544;BME280;8384;47.996;7.786;2023-07-28T06:34:15;98250.03;;;20.09;76.13
16544;BME280;8384;47.996;7.786;2023-07-28T06:36:40;98248.53;;;20.12;75.42
16544;BME280;8384;47.996;7.786;2023-07-28T06:39:05;98249.66;;;20.11;74.61
16544;BME280;8384;47.996;7.786;2023-07-28T06:41:31;98249.78;;;20.14;74.43
16544;BME280;8384;47.996;7.786;2023-07-28T06:43:56;98252.78;;;20.30;73.67
16544;BME280;8384;47.996;7.786;2023-07-28T06:46:21;98253.13;;;20.07;74.05
16544;BME280;8384;47.996;7.786;2023-07-28T06:48:47;98262.69;;;20.19;73.09
16544;BME280;8384;47.996;7.786;2023-07-28T06:51:12;98271.72;;;20.28;71.81
16544;BME280;8384;47.996;7.786;2023-07-28T06:53:37;98266.94;;;20.37;71.90
16544;BME280;8384;47.996;7.786;2023-07-28T06:56:03;98261.25;;;20.34;71.62
16544;BME280;8384;47.996;7.786;2023-07-28T06:58:28;98251.25;;;20.42;71.37
16544;BME280;8384;47.996;7.786;2023-07-28T07:00:54;98267.41;;;20.40;71.17
16544;BME280;8384;47.996;7.786;2023-07-28T07:03:21;98276.34;;;20.45;71.44
16544;BME280;8384;47.996;7.786;2023-07-28T07:05:46;98284.16;;;20.52;71.28
16544;BME280;8384;47.996;7.786;2023-07-28T07:08:11;98281.16;;;20.57;71.04
16544;BME280;8384;47.996;7.786;2023-07-28T07:10:37;98275.06;;;20.64;70.94
16544;BME280;8384;47.996;7.786;2023-07-28T07:13:02;98277.28;;;20.49;70.86
16544;BME280;8384;47.996;7.786;2023-07-28T07:15:27;98276.06;;;20.59;70.15
16544;BME280;8384;47.996;7.786;2023-07-28T07:17:54;98253.53;;;20.61;69.87
16544;BME280;8384;47.996;7.786;2023-07-28T07:20:19;98280.28;;;20.87;69.71
16544;BME280;8384;47.996;7.786;2023-07-28T07:22:44;98285.78;;;21.08;67.91
16544;BME280;8384;47.996;7.786;2023-07-28T07:25:09;98293.56;;;21.15;67.01
16544;BME280;8384;47.996;7.786;2023-07-28T07:27:35;98299.91;;;21.15;67.23
16544;BME280;8384;47.996;7.786;2023-07-28T07:30:00;98294.34;;;21.03;67.85
16544;BME280;8384;47.996;7.786;2023-07-28T07:32:25;98305.75;;;21.22;66.72
16544;BME280;8384;47.996;7.786;2023-07-28T07:34:50;98295.25;;;21.07;68.05
16544;BME280;8384;47.996;7.786;2023-07-28T07:37:18;98300.09;;;21.31;65.98
16544;BME280;8384;47.996;7.786;2023-07-28T07:39:43;98302.53;;;20.99;67.51
16544;BME280;8384;47.996;7.786;2023-07-28T07:42:09;98295.22;;;21.28;66.21
16544;BME280;8384;47.996;7.786;2023-07-28T07:44:36;98305.75;;;21.35;65.59
16544;BME280;8384;47.996;7.786;2023-07-28T07:47:11;98298.34;;;21.39;65.49
16544;BME280;8384;47.996;7.786;2023-07-28T07:49:37;98302.88;;;21.31;65.89
16544;BME280;8384;47.996;7.786;2023-07-28T07:52:02;98307.38;;;21.36;65.69
16544;BME280;8384;47.996;7.786;2023-07-28T07:54:28;98317.66;;;21.23;66.20
16544;BME280;8384;47.996;7.786;2023-07-28T07:56:53;98306.69;;;21.26;65.61
16544;BME280;8384;47.996;7.786;2023-07-28T07:59:18;98312.47;;;21.34;64.95
16544;BME280;8384;47.996;7.786;2023-07-28T08:01:43;98318.84;;;21.34;65.39
16544;BME280;8384;47.996;7.786;2023-07-28T08:04:09;98320.03;;;21.46;65.32
16544;BME280;8384;47.996;7.786;2023-07-28T08:06:36;98324.09;;;21.48;64.18
16544;BME280;8384;47.996;7.786;2023-07-28T08:09:01;98299.72;;;21.20;65.69
16544;BME280;8384;47.996;7.786;2023-07-28T08:11:27;98310.88;;;21.45;64.31
16544;BME280;8384;47.996;7.786;2023-07-28T08:13:53;98315.19;;;21.55;64.07
16544;BME280;8384;47.996;7.786;2023-07-28T08:16:18;98322.38;;;21.43;65.36
16544;BME280;8384;47.996;7.786;2023-07-28T08:18:43;98318.91;;;21.59;64.94
16544;BME280;8384;47.996;7.786;2023-07-28T08:21:08;98324.81;;;21.57;64.92
16544;BME280;8384;47.996;7.786;2023-07-28T08:23:34;98327.13;;;21.55;64.77
16544;BME280;8384;47.996;7.786;2023-07-28T08:25:59;98334.06;;;21.49;65.25
16544;BME280;8384;47.996;7.786;2023-07-28T08:28:24;98325.03;;;21.52;64.81
16544;BME280;8384;47.996;7.786;2023-07-28T08:30:55;98316.81;;;21.43;65.56
16544;BME280;8384;47.996;7.786;2023-07-28T08:33:21;98296.88;;;21.54;65.05
16544;BME280;8384;47.996;7.786;2023-07-28T08:35:47;98309.31;;;21.69;64.56
16544;BME280;8384;47.996;7.786;2023-07-28T08:38:12;98332.28;;;21.91;65.07
16544;BME280;8384;47.996;7.786;2023-07-28T08:40:38;98333.56;;;22.18;63.62
16544;BME280;8384;47.996;7.786;2023-07-28T08:43:03;98327.63;;;22.44;62.16
16544;BME280;8384;47.996;7.786;2023-07-28T08:45:28;98324.81;;;22.57;62.11
16544;BME280;8384;47.996;7.786;2023-07-28T08:47:53;98333.50;;;22.96;61.24
16544;BME280;8384;47.996;7.786;2023-07-28T08:50:19;98342.69;;;22.56;61.59
16544;BME280;8384;47.996;7.786;2023-07-28T08:52:44;98333.66;;;22.59;61.58
16544;BME280;8384;47.996;7.786;2023-07-28T08:55:10;98327.72;;;22.36;61.67
16544;BME280;8384;47.996;7.786;2023-07-28T08:57:36;98332.59;;;22.39;62.28
16544;BME280;8384;47.996;7.786;2023-07-28T09:00:11;98340.72;;;22.56;61.44
16544;BME280;8384;47.996;7.786;2023-07-28T09:02:40;98345.72;;;22.51;62.97
16544;BME280;8384;47.996;7.786;2023-07-28T09:05:05;98359.41;;;22.56;62.63
16544;BME280;8384;47.996;7.786;2023-07-28T09:07:35;98338.19;;;22.39;63.04
16544;BME280;8384;47.996;7.786;2023-07-28T09:10:01;98347.13;;;22.20;64.05
16544;BME280;8384;47.996;7.786;2023-07-28T09:12:27;98330.78;;;22.18;63.83
16544;BME280;8384;47.996;7.786;2023-07-28T09:14:56;98346.41;;;22.47;63.42
16544;BME280;8384;47.996;7.786;2023-07-28T09:17:21;98359.28;;;22.40;63.01
16544;BME280;8384;47.996;7.786;2023-07-28T09:19:56;98345.94;;;22.58;63.11
16544;BME280;8384;47.996;7.786;2023-07-28T09:22:22;98344.19;;;22.53;63.04
16544;BME280;8384;47.996;7.786;2023-07-28T09:24:48;98353.69;;;22.65;63.78
16544;BME280;8384;47.996;7.786;2023-07-28T09:27:25;98350.75;;;22.86;63.20
16544;BME280;8384;47.996;7.786;2023-07-28T09:29:52;98361.31;;;22.80;62.57
16544;BME280;8384;47.996;7.786;2023-07-28T09:32:30;98355.22;;;22.62;63.97
16544;BME280;8384;47.996;7.786;2023-07-28T09:35:11;98354.56;;;22.81;63.67
16544;BME280;8384;47.996;7.786;2023-07-28T09:37:44;98343.94;;;22.99;63.92
16544;BME280;8384;47.996;7.786;2023-07-28T09:40:11;98342.53;;;23.05;62.93
16544;BME280;8384;47.996;7.786;2023-07-28T09:42:38;98328.41;;;22.98;63.67
16544;BME280;8384;47.996;7.786;2023-07-28T09:45:05;98352.28;;;23.12;63.76
16544;BME280;8384;47.996;7.786;2023-07-28T09:47:33;98345.25;;;23.18;63.47
16544;BME280;8384;47.996;7.786;2023-07-28T09:49:59;98352.38;;;23.44;61.71
16544;BME280;8384;47.996;7.786;2023-07-28T09:52:34;98368.50;;;23.50;61.26
16544;BME280;8384;47.996;7.786;2023-07-28T09:55:05;98343.88;;;22.96;63.53
16544;BME280;8384;47.996;7.786;2023-07-28T09:57:55;98333.69;;;23.16;62.15
16544;BME280;8384;47.996;7.786;2023-07-28T10:00:21;98356.59;;;23.38;61.86
16544;BME280;8384;47.996;7.786;2023-07-28T10:02:47;98353.25;;;23.32;62.24
16544;BME280;8384;47.996;7.786;2023-07-28T10:05:14;98343.88;;;23.24;62.21
16544;BME280;8384;47.996;7.786;2023-07-28T10:07:44;98353.41;;;23.23;62.40
16544;BME280;8384;47.996;7.786;2023-07-28T10:10:11;98353.44;;;23.39;62.17
16544;BME280;8384;47.996;7.786;2023-07-28T10:12:41;98352.69;;;23.26;62.75
16544;BME280;8384;47.996;7.786;2023-07-28T10:15:08;98333.19;;;23.26;63.04
16544;BME280;8384;47.996;7.786;2023-07-28T10:17:36;98354.19;;;23.52;61.75
16544;BME280;8384;47.996;7.786;2023-07-28T10:20:03;98346.94;;;23.06;63.39
16544;BME280;8384;47.996;7.786;2023-07-28T10:22:43;98324.91;;;23.01;63.92
16544;BME280;8384;47.996;7.786;2023-07-28T10:25:08;98340.00;;;23.00;64.19
16544;BME280;8384;47.996;7.786;2023-07-28T10:27:37;98367.94;;;23.16;64.43
16544;BME280;8384;47.996;7.786;2023-07-28T10:30:10;98352.47;;;23.19;64.23
16544;BME280;8384;47.996;7.786;2023-07-28T10:32:44;98361.94;;;23.43;64.14
16544;BME280;8384;47.996;7.786;2023-07-28T10:37:38;98362.13;;;23.21;64.90
16544;BME280;8384;47.996;7.786;2023-07-28T10:40:29;98368.63;;;23.13;64.20
16544;BME280;8384;47.996;7.786;2023-07-28T10:42:55;98353.78;;;23.09;64.69
16544;BME280;8384;47.996;7.786;2023-07-28T10:45:29;98368.78;;;23.61;64.17
16544;BME280;8384;47.996;7.786;2023-07-28T10:47:56;98368.84;;;23.49;64.01
16544;BME280;8384;47.996;7.786;2023-07-28T10:50:23;98354.53;;;23.34;64.51
16544;BME280;8384;47.996;7.786;2023-07-28T10:52:49;98358.50;;;23.21;65.04
16544;BME280;8384;47.996;7.786;2023-07-28T10:55:23;98359.38;;;23.38;64.09
16544;BME280;8384;47.996;7.786;2023-07-28T10:57:50;98361.50;;;23.28;63.35
16544;BME280;8384;47.996;7.786;2023-07-28T11:00:18;98357.50;;;23.42;62.46
16544;BME280;8384;47.996;7.786;2023-07-28T11:02:45;98357.63;;;23.77;61.36
16544;BME280;8384;47.996;7.786;2023-07-28T11:05:13;98334.38;;;23.41;61.36
16544;BME280;8384;47.996;7.786;2023-07-28T11:07:42;98348.56;;;23.36;63.26
16544;BME280;8384;47.996;7.786;2023-07-28T11:10:09;98337.53;;;23.40;62.58
16544;BME280;8384;47.996;7.786;2023-07-28T11:12:39;98347.44;;;23.69;61.91
16544;BME280;8384;47.996;7.786;2023-07-28T11:15:07;98343.31;;;23.63;59.52
16544;BME280;8384;47.996;7.786;2023-07-28T11:17:36;98352.41;;;23.76;59.72
16544;BME280;8384;47.996;7.786;2023-07-28T11:20:02;98347.00;;;23.83;60.14
16544;BME280;8384;47.996;7.786;2023-07-28T11:22:28;98336.75;;;23.87;59.69
16544;BME280;8384;47.996;7.786;2023-07-28T11:24:53;98340.81;;;24.06;59.40
16544;BME280;8384;47.996;7.786;2023-07-28T11:27:19;98342.22;;;24.16;59.13
16544;BME280;8384;47.996;7.786;2023-07-28T11:29:45;98340.25;;;23.84;59.95
16544;BME280;8384;47.996;7.786;2023-07-28T11:32:12;98340.63;;;23.66;61.43
16544;BME280;8384;47.996;7.786;2023-07-28T11:34:38;98339.28;;;23.76;61.64
16544;BME280;8384;47.996;7.786;2023-07-28T11:37:04;98337.25;;;23.61;59.55
16544;BME280;8384;47.996;7.786;2023-07-28T11:39:30;98341.84;;;23.53;61.17
16544;BME280;8384;47.996;7.786;2023-07-28T11:41:57;98330.53;;;23.62;60.96
16544;BME280;8384;47.996;7.786;2023-07-28T11:44:22;98353.22;;;23.60;60.48
16544;BME280;8384;47.996;7.786;2023-07-28T11:46:49;98337.13;;;23.25;62.09
16544;BME280;8384;47.996;7.786;2023-07-28T11:49:19;98343.03;;;23.52;61.57
16544;BME280;8384;47.996;7.786;2023-07-28T11:51:49;98333.38;;;23.33;60.96
16544;BME280;8384;47.996;7.786;2023-07-28T11:54:16;98335.56;;;23.12;62.54
16544;BME280;8384;47.996;7.786;2023-07-28T11:56:43;98361.88;;;23.27;61.71
16544;BME280;8384;47.996;7.786;2023-07-28T11:59:09;98341.53;;;23.26;61.60
16544;BME280;8384;47.996;7.786;2023-07-28T12:01:34;98322.78;;;23.11;61.99
16544;BME280;8384;47.996;7.786;2023-07-28T12:04:19;98332.75;;;23.12;61.31
16544;BME280;8384;47.996;7.786;2023-07-28T12:07:46;98331.75;;;23.32;61.86
16544;BME280;8384;47.996;7.786;2023-07-28T12:09:51;98319.59;;;23.25;60.17
16544;BME280;8384;47.996;7.786;2023-07-28T12:12:18;98334.34;;;23.25;61.29
16544;BME280;8384;47.996;7.786;2023-07-28T12:14:44;98338.97;;;23.49;60.08
16544;BME280;8384;47.996;7.786;2023-07-28T12:17:13;98339.84;;;23.21;60.56
16544;BME280;8384;47.996;7.786;2023-07-28T12:19:54;98337.22;;;23.00;60.42
16544;BME280;8384;47.996;7.786;2023-07-28T12:22:19;98347.00;;;22.94;60.01
16544;BME280;8384;47.996;7.786;2023-07-28T12:24:45;98335.59;;;22.99;59.10
16544;BME280;8384;47.996;7.786;2023-07-28T12:27:10;98319.47;;;22.64;59.82
16544;BME280;8384;47.996;7.786;2023-07-28T12:29:38;98337.00;;;22.93;59.58
16544;BME280;8384;47.996;7.786;2023-07-28T12:32:03;98331.28;;;22.73;60.37
16544;BME280;8384;47.996;7.786;2023-07-28T12:34:29;98317.16;;;22.54;60.29
16544;BME280;8384;47.996;7.786;2023-07-28T12:36:54;98350.94;;;22.93;59.87
16544;BME280;8384;47.996;7.786;2023-07-28T12:39:19;98351.09;;;22.84;60.24
16544;BME280;8384;47.996;7.786;2023-07-28T12:41:44;98352.16;;;22.80;60.31
16544;BME280;8384;47.996;7.786;2023-07-28T12:44:10;98357.25;;;22.90;57.54
16544;BME280;8384;47.996;7.786;2023-07-28T12:46:35;98361.38;;;22.96;58.82
16544;BME280;8384;47.996;7.786;2023-07-28T12:49:00;98361.97;;;22.61;59.26
16544;BME280;8384;47.996;7.786;2023-07-28T12:51:26;98362.19;;;22.56;63.83
16544;BME280;8384;47.996;7.786;2023-07-28T12:53:51;98377.16;;;22.26;62.86
16544;BME280;8384;47.996;7.786;2023-07-28T12:56:16;98362.19;;;21.94;68.57
16544;BME280;8384;47.996;7.786;2023-07-28T12:58:42;98385.25;;;21.69;70.85
16544;BME280;8384;47.996;7.786;2023-07-28T13:01:07;98360.16;;;21.57;71.52
16544;BME280;8384;47.996;7.786;2023-07-28T13:03:33;98382.69;;;21.64;72.32
16544;BME280;8384;47.996;7.786;2023-07-28T13:05:59;98347.38;;;21.43;72.12
16544;BME280;8384;47.996;7.786;2023-07-28T13:08:25;98384.13;;;21.49;75.22
16544;BME280;8384;47.996;7.786;2023-07-28T13:10:50;98394.94;;;21.30;78.73
16544;BME280;8384;47.996;7.786;2023-07-28T13:13:16;98391.72;;;20.85;80.44
16544;BME280;8384;47.996;7.786;2023-07-28T13:15:41;98385.75;;;20.95;81.93
16544;BME280;8384;47.996;7.786;2023-07-28T13:18:06;98372.19;;;20.73;81.31